sensor_id;sensor_type;location;lat;lon;timestamp;P1;durP1;ratioP1;P2;durP2;ratioP2
39694;SDS011;25367;-35.352;149.036;2023-03-05T08:37:29;8.25;;;2.17;;
39694;SDS011;25367;-35.352;149.036;2023-03-05T08:42:27;11.20;;;1.67;;
39694;SDS011;25367;-35.352;149.036;2023-03-05T08:44:56;4.95;;;1.48;;
39694;SDS011;25367;-35.352;149.036;2023-03-05T08:47:26;4.38;;;1.60;;
39694;SDS011;25367;-35.352;149.036;2023-03-05T08:49:55;3.97;;;1.42;;
39694;SDS011;25367;-35.352;149.036;2023-03-05T08:52:24;5.40;;;1.48;;
39694;SDS011;25367;-35.352;149.036;2023-03-05T08:54:56;4.35;;;1.50;;
39694;SDS011;25367;-35.352;149.036;2023-03-05T08:57:25;3.95;;;1.55;;
39694;SDS011;25367;-35.352;149.036;2023-03-05T08:59:55;7.85;;;1.90;;
39694;SDS011;25367;-35.352;149.036;2023-03-05T09:02:24;4.50;;;1.10;;
39694;SDS011;25367;-35.352;149.036;2023-03-05T09:04:54;4.60;;;1.30;;
39694;SDS011;25367;-35.352;149.036;2023-03-05T09:07:23;3.70;;;1.50;;
39694;SDS011;25367;-35.352;149.036;2023-03-05T09:09:55;9.07;;;2.38;;
39694;SDS011;25367;-35.352;149.036;2023-03-05T09:12:24;12.27;;;2.90;;
39694;SDS011;25367;-35.352;149.036;2023-03-05T09:14:53;10.18;;;2.45;;
39694;SDS011;25367;-35.352;149.036;2023-03-05T09:17:23;8.32;;;2.25;;
39694;SDS011;25367;-35.352;149.036;2023-03-05T09:19:52;16.08;;;3.17;;
39694;SDS011;25367;-35.352;149.036;2023-03-05T09:22:22;6.90;;;2.00;;
39694;SDS011;25367;-35.352;149.036;2023-03-05T09:24:51;8.13;;;2.15;;
39694;SDS011;25367;-35.352;149.036;2023-03-05T09:27:22;7.07;;;2.35;;
39694;SDS011;25367;-35.352;149.036;2023-03-05T09:29:52;8.93;;;2.40;;
39694;SDS011;25367;-35.352;149.036;2023-03-05T09:32:21;6.93;;;2.30;;
39694;SDS011;25367;-35.352;149.036;2023-03-05T09:34:51;9.18;;;2.30;;
39694;SDS011;25367;-35.352;149.036;2023-03-05T09:37:20;7.03;;;1.98;;
39694;SDS011;25367;-35.352;149.036;2023-03-05T09:39:50;6.15;;;1.70;;
39694;SDS011;25367;-35.352;149.036;2023-03-05T09:42:26;11.57;;;2.28;;
39694;SDS011;25367;-35.352;149.036;2023-03-05T09:45:08;7.18;;;1.80;;
39694;SDS011;25367;-35.352;149.036;2023-03-05T09:47:47;9.30;;;2.17;;
39694;SDS011;25367;-35.352;149.036;2023-03-05T09:50:29;8.30;;;2.20;;
39694;SDS011;25367;-35.352;149.036;2023-03-05T09:53:04;7.05;;;1.88;;
39694;SDS011;25367;-35.352;149.036;2023-03-05T09:55:50;6.90;;;1.75;;
39694;SDS011;25367;-35.352;149.036;2023-03-05T09:58:24;5.70;;;1.73;;
39694;SDS011;25367;-35.352;149.036;2023-03-05T10:01:02;9.35;;;2.00;;
39694;SDS011;25367;-35.352;149.036;2023-03-05T10:03:43;8.43;;;2.25;;
39694;SDS011;25367;-35.352;149.036;2023-03-05T10:08:52;7.32;;;1.70;;
39694;SDS011;25367;-35.352;149.036;2023-03-05T10:11:35;6.20;;;1.55;;
39694;SDS011;25367;-35.352;149.036;2023-03-05T10:14:15;6.75;;;2.55;;
39694;SDS011;25367;-35.352;149.036;2023-03-05T10:16:59;5.50;;;1.58;;
39694;SDS011;25367;-35.352;149.036;2023-03-05T10:19:52;5.20;;;1.75;;
39694;SDS011;25367;-35.352;149.036;2023-03-05T10:22:35;8.40;;;2.55;;
39694;SDS011;25367;-35.352;149.036;2023-03-05T10:25:17;7.07;;;2.25;;
39694;SDS011;25367;-35.352;149.036;2023-03-05T10:27:50;5.50;;;1.25;;
39694;SDS011;25367;-35.352;149.036;2023-03-05T10:30:34;7.05;;;1.70;;
39694;SDS011;25367;-35.352;149.036;2023-03-05T10:33:20;8.18;;;1.90;;
39694;SDS011;25367;-35.352;149.036;2023-03-05T10:36:16;6.05;;;1.45;;
39694;SDS011;25367;-35.352;149.036;2023-03-05T10:39:07;11.70;;;1.83;;
39694;SDS011;25367;-35.352;149.036;2023-03-05T10:42:01;4.05;;;1.30;;
39694;SDS011;25367;-35.352;149.036;2023-03-05T10:44:36;7.72;;;1.98;;
39694;SDS011;25367;-35.352;149.036;2023-03-05T10:47:14;8.70;;;2.17;;
39694;SDS011;25367;-35.352;149.036;2023-03-05T10:49:49;10.00;;;1.90;;
39694;SDS011;25367;-35.352;149.036;2023-03-05T10:52:21;4.88;;;2.28;;
39694;SDS011;25367;-35.352;149.036;2023-03-05T10:54:59;16.13;;;2.20;;
39694;SDS011;25367;-35.352;149.036;2023-03-05T10:57:30;4.50;;;1.45;;
39694;SDS011;25367;-35.352;149.036;2023-03-05T11:00:00;6.90;;;1.98;;
39694;SDS011;25367;-35.352;149.036;2023-03-05T11:05:32;11.43;;;2.33;;
39694;SDS011;25367;-35.352;149.036;2023-03-05T11:08:24;8.20;;;2.25;;
39694;SDS011;25367;-35.352;149.036;2023-03-05T11:11:02;8.50;;;2.03;;
39694;SDS011;25367;-35.352;149.036;2023-03-05T11:13:53;9.07;;;2.00;;
39694;SDS011;25367;-35.352;149.036;2023-03-05T11:16:24;8.05;;;1.77;;
39694;SDS011;25367;-35.352;149.036;2023-03-05T11:22:02;10.93;;;2.37;;
39694;SDS011;25367;-35.352;149.036;2023-03-05T11:24:34;10.88;;;2.20;;
39694;SDS011;25367;-35.352;149.036;2023-03-05T11:27:19;8.23;;;1.95;;
39694;SDS011;25367;-35.352;149.036;2023-03-05T11:29:50;5.95;;;1.52;;
39694;SDS011;25367;-35.352;149.036;2023-03-05T11:32:20;7.80;;;2.08;;
39694;SDS011;25367;-35.352;149.036;2023-03-05T11:34:54;7.53;;;1.83;;
39694;SDS011;25367;-35.352;149.036;2023-03-05T11:37:24;4.18;;;1.63;;
39694;SDS011;25367;-35.352;149.036;2023-03-05T11:42:47;6.30;;;1.70;;
39694;SDS011;25367;-35.352;149.036;2023-03-05T11:45:22;4.60;;;1.40;;
39694;SDS011;25367;-35.352;149.036;2023-03-05T11:47:54;4.50;;;1.55;;
39694;SDS011;25367;-35.352;149.036;2023-03-05T11:50:29;10.48;;;1.90;;
39694;SDS011;25367;-35.352;149.036;2023-03-05T11:53:01;4.28;;;1.60;;
39694;SDS011;25367;-35.352;149.036;2023-03-05T11:55:33;10.18;;;2.13;;
39694;SDS011;25367;-35.352;149.036;2023-03-05T11:58:15;7.43;;;1.92;;
39694;SDS011;25367;-35.352;149.036;2023-03-05T12:00:54;6.82;;;1.80;;
39694;SDS011;25367;-35.352;149.036;2023-03-05T12:03:24;6.43;;;1.92;;
39694;SDS011;25367;-35.352;149.036;2023-03-05T12:05:59;9.68;;;1.75;;
39694;SDS011;25367;-35.352;149.036;2023-03-05T12:08:36;8.00;;;1.85;;
39694;SDS011;25367;-35.352;149.036;2023-03-05T12:11:11;4.78;;;1.58;;
39694;SDS011;25367;-35.352;149.036;2023-03-05T12:13:45;6.07;;;1.88;;
39694;SDS011;25367;-35.352;149.036;2023-03-05T12:16:19;8.82;;;1.80;;
39694;SDS011;25367;-35.352;149.036;2023-03-05T12:18:59;7.72;;;1.85;;
39694;SDS011;25367;-35.352;149.036;2023-03-05T12:21:55;8.52;;;1.70;;
39694;SDS011;25367;-35.352;149.036;2023-03-05T12:24:32;4.70;;;1.63;;
39694;SDS011;25367;-35.352;149.036;2023-03-05T12:27:16;9.68;;;2.30;;
39694;SDS011;25367;-35.352;149.036;2023-03-05T12:30:01;5.20;;;1.90;;
39694;SDS011;25367;-35.352;149.036;2023-03-05T12:35:28;6.78;;;1.45;;
39694;SDS011;25367;-35.352;149.036;2023-03-05T12:38:02;3.85;;;1.48;;
39694;SDS011;25367;-35.352;149.036;2023-03-05T12:40:45;5.38;;;1.85;;
39694;SDS011;25367;-35.352;149.036;2023-03-05T12:43:27;7.45;;;2.08;;
39694;SDS011;25367;-35.352;149.036;2023-03-05T12:48:43;3.92;;;1.52;;
39694;SDS011;25367;-35.352;149.036;2023-03-05T12:57:05;3.58;;;1.67;;
39694;SDS011;25367;-35.352;149.036;2023-03-05T12:59:45;4.20;;;1.20;;
39694;SDS011;25367;-35.352;149.036;2023-03-05T13:02:22;7.47;;;1.60;;
39694;SDS011;25367;-35.352;149.036;2023-03-05T13:04:58;5.90;;;1.67;;
39694;SDS011;25367;-35.352;149.036;2023-03-05T13:07:30;4.40;;;1.52;;
39694;SDS011;25367;-35.352;149.036;2023-03-05T13:10:02;3.90;;;1.48;;
39694;SDS011;25367;-35.352;149.036;2023-03-05T13:12:31;5.43;;;1.98;;
39694;SDS011;25367;-35.352;149.036;2023-03-05T13:15:15;3.83;;;1.35;;
39694;SDS011;25367;-35.352;149.036;2023-03-05T13:17:50;5.28;;;1.88;;
39694;SDS011;25367;-35.352;149.036;2023-03-05T13:20:27;5.75;;;2.05;;
39694;SDS011;25367;-35.352;149.036;2023-03-05T13:23:07;2.38;;;1.00;;
39694;SDS011;25367;-35.352;149.036;2023-03-05T13:25:44;4.20;;;1.70;;
39694;SDS011;25367;-35.352;149.036;2023-03-05T13:28:23;5.22;;;1.52;;
39694;SDS011;25367;-35.352;149.036;2023-03-05T13:30:53;2.97;;;1.30;;
39694;SDS011;25367;-35.352;149.036;2023-03-05T13:33:25;4.30;;;1.52;;
39694;SDS011;25367;-35.352;149.036;2023-03-05T13:35:56;4.57;;;1.42;;
39694;SDS011;25367;-35.352;149.036;2023-03-05T13:38:27;3.17;;;1.10;;
39694;SDS011;25367;-35.352;149.036;2023-03-05T13:41:03;2.95;;;1.33;;
39694;SDS011;25367;-35.352;149.036;2023-03-05T13:43:46;3.65;;;1.25;;
39694;SDS011;25367;-35.352;149.036;2023-03-05T13:46:27;7.28;;;2.00;;
39694;SDS011;25367;-35.352;149.036;2023-03-05T13:49:14;5.00;;;1.30;;
39694;SDS011;25367;-35.352;149.036;2023-03-05T13:51:46;3.58;;;1.50;;
39694;SDS011;25367;-35.352;149.036;2023-03-05T13:54:17;5.20;;;1.92;;
39694;SDS011;25367;-35.352;149.036;2023-03-05T13:56:53;2.63;;;1.00;;
39694;SDS011;25367;-35.352;149.036;2023-03-05T13:59:24;3.47;;;1.58;;
39694;SDS011;25367;-35.352;149.036;2023-03-05T14:01:54;3.65;;;1.38;;
39694;SDS011;25367;-35.352;149.036;2023-03-05T14:04:24;3.70;;;1.50;;
39694;SDS011;25367;-35.352;149.036;2023-03-05T14:06:57;3.35;;;1.27;;
39694;SDS011;25367;-35.352;149.036;2023-03-05T14:09:29;2.95;;;1.30;;
39694;SDS011;25367;-35.352;149.036;2023-03-05T14:12:20;3.70;;;1.40;;
39694;SDS011;25367;-35.352;149.036;2023-03-05T14:14:52;5.75;;;1.58;;
39694;SDS011;25367;-35.352;149.036;2023-03-05T14:17:31;5.45;;;1.50;;
39694;SDS011;25367;-35.352;149.036;2023-03-05T14:20:08;3.80;;;1.60;;
39694;SDS011;25367;-35.352;149.036;2023-03-05T14:22:49;3.50;;;1.30;;
39694;SDS011;25367;-35.352;149.036;2023-03-05T14:25:31;2.15;;;1.02;;
39694;SDS011;25367;-35.352;149.036;2023-03-05T14:28:04;4.68;;;1.25;;
39694;SDS011;25367;-35.352;149.036;2023-03-05T14:30:47;3.83;;;1.60;;
39694;SDS011;25367;-35.352;149.036;2023-03-05T14:33:20;6.03;;;1.52;;
39694;SDS011;25367;-35.352;149.036;2023-03-05T14:35:50;4.18;;;1.50;;
39694;SDS011;25367;-35.352;149.036;2023-03-05T14:38:21;3.13;;;1.20;;
39694;SDS011;25367;-35.352;149.036;2023-03-05T14:40:52;3.53;;;1.42;;
39694;SDS011;25367;-35.352;149.036;2023-03-05T14:43:24;3.30;;;1.27;;
39694;SDS011;25367;-35.352;149.036;2023-03-05T14:45:53;3.03;;;0.93;;
39694;SDS011;25367;-35.352;149.036;2023-03-05T14:48:22;3.42;;;1.35;;
39694;SDS011;25367;-35.352;149.036;2023-03-05T14:50:52;2.90;;;1.25;;
39694;SDS011;25367;-35.352;149.036;2023-03-05T14:53:22;3.90;;;1.55;;
39694;SDS011;25367;-35.352;149.036;2023-03-05T14:55:53;4.28;;;1.40;;
39694;SDS011;25367;-35.352;149.036;2023-03-05T14:58:25;5.07;;;1.52;;
39694;SDS011;25367;-35.352;149.036;2023-03-05T15:00:57;4.28;;;1.30;;
39694;SDS011;25367;-35.352;149.036;2023-03-05T15:03:26;3.60;;;1.38;;
39694;SDS011;25367;-35.352;149.036;2023-03-05T15:05:56;4.63;;;1.17;;
39694;SDS011;25367;-35.352;149.036;2023-03-05T15:08:26;3.13;;;1.35;;
39694;SDS011;25367;-35.352;149.036;2023-03-05T15:10:58;3.88;;;1.50;;
39694;SDS011;25367;-35.352;149.036;2023-03-05T15:13:30;4.97;;;1.60;;
39694;SDS011;25367;-35.352;149.036;2023-03-05T15:15:59;4.13;;;0.95;;
39694;SDS011;25367;-35.352;149.036;2023-03-05T15:18:31;3.13;;;1.20;;
39694;SDS011;25367;-35.352;149.036;2023-03-05T15:21:00;3.47;;;1.10;;
39694;SDS011;25367;-35.352;149.036;2023-03-05T15:23:30;5.35;;;1.58;;
39694;SDS011;25367;-35.352;149.036;2023-03-05T15:25:59;3.83;;;1.38;;
39694;SDS011;25367;-35.352;149.036;2023-03-05T15:28:31;3.45;;;1.17;;
39694;SDS011;25367;-35.352;149.036;2023-03-05T15:31:01;4.28;;;1.63;;
39694;SDS011;25367;-35.352;149.036;2023-03-05T15:33:33;4.20;;;1.20;;
39694;SDS011;25367;-35.352;149.036;2023-03-05T15:36:03;2.22;;;1.40;;
39694;SDS011;25367;-35.352;149.036;2023-03-05T15:38:33;4.10;;;1.10;;
39694;SDS011;25367;-35.352;149.036;2023-03-05T15:41:02;4.88;;;1.60;;
39694;SDS011;25367;-35.352;149.036;2023-03-05T15:43:33;7.85;;;1.65;;
39694;SDS011;25367;-35.352;149.036;2023-03-05T15:46:04;1.87;;;1.27;;
39694;SDS011;25367;-35.352;149.036;2023-03-05T15:48:33;5.43;;;1.70;;
39694;SDS011;25367;-35.352;149.036;2023-03-05T15:51:05;4.07;;;1.60;;
39694;SDS011;25367;-35.352;149.036;2023-03-05T15:53:35;4.40;;;1.33;;
39694;SDS011;25367;-35.352;149.036;2023-03-05T15:56:04;3.15;;;1.25;;
39694;SDS011;25367;-35.352;149.036;2023-03-05T15:58:36;4.97;;;1.70;;
39694;SDS011;25367;-35.352;149.036;2023-03-05T16:01:05;4.95;;;1.58;;
39694;SDS011;25367;-35.352;149.036;2023-03-05T16:03:35;4.95;;;1.17;;
39694;SDS011;25367;-35.352;149.036;2023-03-05T16:06:04;4.70;;;1.42;;
39694;SDS011;25367;-35.352;149.036;2023-03-05T16:08:35;4.00;;;1.58;;
39694;SDS011;25367;-35.352;149.036;2023-03-05T16:11:05;4.30;;;1.50;;
39694;SDS011;25367;-35.352;149.036;2023-03-05T16:13:37;3.75;;;1.55;;
39694;SDS011;25367;-35.352;149.036;2023-03-05T16:16:07;5.47;;;1.90;;
39694;SDS011;25367;-35.352;149.036;2023-03-05T16:18:37;3.58;;;1.27;;
39694;SDS011;25367;-35.352;149.036;2023-03-05T16:21:09;2.33;;;1.20;;
39694;SDS011;25367;-35.352;149.036;2023-03-05T16:23:39;3.03;;;1.10;;
39694;SDS011;25367;-35.352;149.036;2023-03-05T16:26:09;3.67;;;1.10;;
39694;SDS011;25367;-35.352;149.036;2023-03-05T16:28:41;5.30;;;1.60;;
39694;SDS011;25367;-35.352;149.036;2023-03-05T16:31:10;3.33;;;1.55;;
39694;SDS011;25367;-35.352;149.036;2023-03-05T16:33:40;4.75;;;1.30;;
39694;SDS011;25367;-35.352;149.036;2023-03-05T16:36:22;2.33;;;1.40;;
39694;SDS011;25367;-35.352;149.036;2023-03-05T16:41:21;3.50;;;1.20;;
39694;SDS011;25367;-35.352;149.036;2023-03-05T16:43:52;5.07;;;1.60;;
39694;SDS011;25367;-35.352;149.036;2023-03-05T16:46:23;2.40;;;1.10;;
39694;SDS011;25367;-35.352;149.036;2023-03-05T16:48:53;4.15;;;1.38;;
39694;SDS011;25367;-35.352;149.036;2023-03-05T16:51:22;2.70;;;1.05;;
39694;SDS011;25367;-35.352;149.036;2023-03-05T16:53:52;3.35;;;1.15;;
39694;SDS011;25367;-35.352;149.036;2023-03-05T16:56:22;3.95;;;1.15;;
39694;SDS011;25367;-35.352;149.036;2023-03-05T16:58:53;3.50;;;1.02;;
39694;SDS011;25367;-35.352;149.036;2023-03-05T17:01:23;3.10;;;1.27;;
39694;SDS011;25367;-35.352;149.036;2023-03-05T17:03:52;4.50;;;1.27;;
39694;SDS011;25367;-35.352;149.036;2023-03-05T17:06:24;5.30;;;1.30;;
39694;SDS011;25367;-35.352;149.036;2023-03-05T17:08:55;2.80;;;0.98;;
39694;SDS011;25367;-35.352;149.036;2023-03-05T17:11:24;3.83;;;1.45;;
39694;SDS011;25367;-35.352;149.036;2023-03-05T17:13:56;3.55;;;1.50;;
39694;SDS011;25367;-35.352;149.036;2023-03-05T17:16:25;3.55;;;1.30;;
39694;SDS011;25367;-35.352;149.036;2023-03-05T17:18:55;2.00;;;0.90;;
39694;SDS011;25367;-35.352;149.036;2023-03-05T17:21:24;5.82;;;1.45;;
39694;SDS011;25367;-35.352;149.036;2023-03-05T17:23:54;3.25;;;1.20;;
39694;SDS011;25367;-35.352;149.036;2023-03-05T17:26:24;8.23;;;1.40;;
39694;SDS011;25367;-35.352;149.036;2023-03-05T17:28:53;4.28;;;1.25;;
39694;SDS011;25367;-35.352;149.036;2023-03-05T17:31:24;1.77;;;1.10;;
39694;SDS011;25367;-35.352;149.036;2023-03-05T17:33:54;3.75;;;1.40;;
39694;SDS011;25367;-35.352;149.036;2023-03-05T17:36:24;5.88;;;1.63;;
39694;SDS011;25367;-35.352;149.036;2023-03-05T17:38:53;3.70;;;1.40;;
39694;SDS011;25367;-35.352;149.036;2023-03-05T17:41:23;2.33;;;1.38;;
39694;SDS011;25367;-35.352;149.036;2023-03-05T17:43:53;2.85;;;1.33;;
39694;SDS011;25367;-35.352;149.036;2023-03-05T17:46:24;3.83;;;1.35;;
39694;SDS011;25367;-35.352;149.036;2023-03-05T17:48:53;2.45;;;1.08;;
39694;SDS011;25367;-35.352;149.036;2023-03-05T17:51:23;3.58;;;1.30;;
39694;SDS011;25367;-35.352;149.036;2023-03-05T17:53:52;2.63;;;1.10;;
39694;SDS011;25367;-35.352;149.036;2023-03-05T17:56:22;5.72;;;1.33;;
39694;SDS011;25367;-35.352;149.036;2023-03-05T17:58:51;4.57;;;1.20;;
39694;SDS011;25367;-35.352;149.036;2023-03-05T18:01:23;8.20;;;1.65;;
39694;SDS011;25367;-35.352;149.036;2023-03-05T18:06:22;3.55;;;1.30;;
39694;SDS011;25367;-35.352;149.036;2023-03-05T18:08:52;2.40;;;1.50;;
39694;SDS011;25367;-35.352;149.036;2023-03-05T18:11:21;4.47;;;1.65;;
39694;SDS011;25367;-35.352;149.036;2023-03-05T18:13:50;4.63;;;1.60;;
39694;SDS011;25367;-35.352;149.036;2023-03-05T18:16:20;4.43;;;1.83;;
39694;SDS011;25367;-35.352;149.036;2023-03-05T18:18:51;4.68;;;1.70;;
39694;SDS011;25367;-35.352;149.036;2023-03-05T18:21:20;3.38;;;1.58;;
39694;SDS011;25367;-35.352;149.036;2023-03-05T18:23:51;4.78;;;1.40;;
39694;SDS011;25367;-35.352;149.036;2023-03-05T18:26:20;2.03;;;1.00;;
39694;SDS011;25367;-35.352;149.036;2023-03-05T18:28:50;2.65;;;1.42;;
39694;SDS011;25367;-35.352;149.036;2023-03-05T18:31:19;3.38;;;1.30;;
39694;SDS011;25367;-35.352;149.036;2023-03-05T18:33:51;4.80;;;1.25;;
39694;SDS011;25367;-35.352;149.036;2023-03-05T18:36:20;3.42;;;1.55;;
39694;SDS011;25367;-35.352;149.036;2023-03-05T18:38:50;2.40;;;1.30;;
39694;SDS011;25367;-35.352;149.036;2023-03-05T18:41:19;3.00;;;1.38;;
39694;SDS011;25367;-35.352;149.036;2023-03-05T18:43:50;3.65;;;1.23;;
39694;SDS011;25367;-35.352;149.036;2023-03-05T18:46:20;2.85;;;1.25;;
39694;SDS011;25367;-35.352;149.036;2023-03-05T18:48:51;3.70;;;1.55;;
39694;SDS011;25367;-35.352;149.036;2023-03-05T18:51:21;2.35;;;1.40;;
39694;SDS011;25367;-35.352;149.036;2023-03-05T18:53:51;2.10;;;1.10;;
39694;SDS011;25367;-35.352;149.036;2023-03-05T18:56:20;2.42;;;1.35;;
39694;SDS011;25367;-35.352;149.036;2023-03-05T18:58:50;2.40;;;1.05;;
39694;SDS011;25367;-35.352;149.036;2023-03-05T19:01:20;5.70;;;1.58;;
39694;SDS011;25367;-35.352;149.036;2023-03-05T19:03:49;4.25;;;1.20;;
39694;SDS011;25367;-35.352;149.036;2023-03-05T19:06:20;3.00;;;1.25;;
39694;SDS011;25367;-35.352;149.036;2023-03-05T19:08:50;3.38;;;1.05;;
39694;SDS011;25367;-35.352;149.036;2023-03-05T19:11:19;3.42;;;1.30;;
39694;SDS011;25367;-35.352;149.036;2023-03-05T19:13:50;5.07;;;1.40;;
39694;SDS011;25367;-35.352;149.036;2023-03-05T19:16:19;2.17;;;0.90;;
39694;SDS011;25367;-35.352;149.036;2023-03-05T19:18:52;5.55;;;1.20;;
39694;SDS011;25367;-35.352;149.036;2023-03-05T19:21:22;3.27;;;1.17;;
39694;SDS011;25367;-35.352;149.036;2023-03-05T19:23:52;4.10;;;1.08;;
39694;SDS011;25367;-35.352;149.036;2023-03-05T19:26:21;1.73;;;0.88;;
39694;SDS011;25367;-35.352;149.036;2023-03-05T19:28:51;2.60;;;0.90;;
39694;SDS011;25367;-35.352;149.036;2023-03-05T19:31:20;1.90;;;1.10;;
39694;SDS011;25367;-35.352;149.036;2023-03-05T19:33:49;4.47;;;1.45;;
39694;SDS011;25367;-35.352;149.036;2023-03-05T19:36:21;3.53;;;1.20;;
39694;SDS011;25367;-35.352;149.036;2023-03-05T19:38:50;4.20;;;1.40;;
39694;SDS011;25367;-35.352;149.036;2023-03-05T19:41:20;2.47;;;1.20;;
39694;SDS011;25367;-35.352;149.036;2023-03-05T19:43:49;1.67;;;1.08;;
39694;SDS011;25367;-35.352;149.036;2023-03-05T19:46:18;3.53;;;1.10;;
39694;SDS011;25367;-35.352;149.036;2023-03-05T19:48:48;1.65;;;0.90;;
39694;SDS011;25367;-35.352;149.036;2023-03-05T19:51:20;2.25;;;1.15;;
39694;SDS011;25367;-35.352;149.036;2023-03-05T19:53:51;7.50;;;1.60;;
39694;SDS011;25367;-35.352;149.036;2023-03-05T19:56:20;8.38;;;1.35;;
39694;SDS011;25367;-35.352;149.036;2023-03-05T19:58:49;5.55;;;1.50;;
39694;SDS011;25367;-35.352;149.036;2023-03-05T20:01:19;2.25;;;1.10;;
39694;SDS011;25367;-35.352;149.036;2023-03-05T20:03:50;2.90;;;1.38;;
39694;SDS011;25367;-35.352;149.036;2023-03-05T20:06:23;4.97;;;1.20;;
39694;SDS011;25367;-35.352;149.036;2023-03-05T20:08:53;3.93;;;1.40;;
39694;SDS011;25367;-35.352;149.036;2023-03-05T20:11:23;5.45;;;1.23;;
39694;SDS011;25367;-35.352;149.036;2023-03-05T20:13:54;6.72;;;1.60;;
39694;SDS011;25367;-35.352;149.036;2023-03-05T20:16:23;4.32;;;1.25;;
39694;SDS011;25367;-35.352;149.036;2023-03-05T20:18:54;3.50;;;1.50;;
39694;SDS011;25367;-35.352;149.036;2023-03-05T20:21:27;3.45;;;1.45;;
39694;SDS011;25367;-35.352;149.036;2023-03-05T20:26:28;5.25;;;1.70;;
39694;SDS011;25367;-35.352;149.036;2023-03-05T20:29:00;3.65;;;1.15;;
39694;SDS011;25367;-35.352;149.036;2023-03-05T20:31:29;2.75;;;1.45;;
39694;SDS011;25367;-35.352;149.036;2023-03-05T20:34:00;6.85;;;1.90;;
39694;SDS011;25367;-35.352;149.036;2023-03-05T20:36:31;5.22;;;1.13;;
39694;SDS011;25367;-35.352;149.036;2023-03-05T20:39:01;4.70;;;1.20;;
39694;SDS011;25367;-35.352;149.036;2023-03-05T20:41:32;6.50;;;1.10;;
39694;SDS011;25367;-35.352;149.036;2023-03-05T20:44:02;3.72;;;0.90;;
39694;SDS011;25367;-35.352;149.036;2023-03-05T20:46:32;3.65;;;1.20;;
39694;SDS011;25367;-35.352;149.036;2023-03-05T20:49:03;4.97;;;1.42;;
39694;SDS011;25367;-35.352;149.036;2023-03-05T20:51:34;3.78;;;1.33;;
39694;SDS011;25367;-35.352;149.036;2023-03-05T20:54:05;2.90;;;1.27;;
39694;SDS011;25367;-35.352;149.036;2023-03-05T20:56:35;2.08;;;1.33;;
39694;SDS011;25367;-35.352;149.036;2023-03-05T20:59:05;3.63;;;1.45;;
39694;SDS011;25367;-35.352;149.036;2023-03-05T21:01:36;2.65;;;1.40;;
39694;SDS011;25367;-35.352;149.036;2023-03-05T21:04:06;2.17;;;1.48;;
39694;SDS011;25367;-35.352;149.036;2023-03-05T21:06:37;2.25;;;1.38;;
39694;SDS011;25367;-35.352;149.036;2023-03-05T21:09:07;5.40;;;1.85;;
39694;SDS011;25367;-35.352;149.036;2023-03-05T21:11:36;4.03;;;1.73;;
39694;SDS011;25367;-35.352;149.036;2023-03-05T21:14:05;3.92;;;1.50;;
39694;SDS011;25367;-35.352;149.036;2023-03-05T21:16:35;4.47;;;1.70;;
39694;SDS011;25367;-35.352;149.036;2023-03-05T21:19:05;5.80;;;1.88;;
39694;SDS011;25367;-35.352;149.036;2023-03-05T21:21:34;5.00;;;2.10;;
39694;SDS011;25367;-35.352;149.036;2023-03-05T21:24:06;14.68;;;2.55;;
39694;SDS011;25367;-35.352;149.036;2023-03-05T21:26:36;5.60;;;2.72;;
39694;SDS011;25367;-35.352;149.036;2023-03-05T21:29:05;8.88;;;2.95;;
39694;SDS011;25367;-35.352;149.036;2023-03-05T21:31:35;6.65;;;2.92;;
39694;SDS011;25367;-35.352;149.036;2023-03-05T21:34:04;5.45;;;2.50;;
39694;SDS011;25367;-35.352;149.036;2023-03-05T21:36:33;5.85;;;2.53;;
39694;SDS011;25367;-35.352;149.036;2023-03-05T21:39:05;5.75;;;2.25;;
39694;SDS011;25367;-35.352;149.036;2023-03-05T21:41:34;8.63;;;2.60;;
39694;SDS011;25367;-35.352;149.036;2023-03-05T21:44:04;3.95;;;2.47;;
39694;SDS011;25367;-35.352;149.036;2023-03-05T21:46:33;5.50;;;2.67;;
39694;SDS011;25367;-35.352;149.036;2023-03-05T21:49:03;4.30;;;2.17;;
39694;SDS011;25367;-35.352;149.036;2023-03-05T21:51:32;8.18;;;2.50;;
39694;SDS011;25367;-35.352;149.036;2023-03-05T21:54:01;7.38;;;2.80;;
39694;SDS011;25367;-35.352;149.036;2023-03-05T21:56:33;8.18;;;2.45;;
39694;SDS011;25367;-35.352;149.036;2023-03-05T21:59:02;5.20;;;1.88;;
39694;SDS011;25367;-35.352;149.036;2023-03-05T22:01:32;12.32;;;2.00;;
39694;SDS011;25367;-35.352;149.036;2023-03-05T22:04:01;3.38;;;1.77;;
39694;SDS011;25367;-35.352;149.036;2023-03-05T22:06:31;5.75;;;2.05;;
39694;SDS011;25367;-35.352;149.036;2023-03-05T22:09:00;3.15;;;1.77;;
39694;SDS011;25367;-35.352;149.036;2023-03-05T22:11:32;4.88;;;2.25;;
39694;SDS011;25367;-35.352;149.036;2023-03-05T22:14:01;7.10;;;2.13;;
39694;SDS011;25367;-35.352;149.036;2023-03-05T22:16:31;6.30;;;2.17;;
39694;SDS011;25367;-35.352;149.036;2023-03-05T22:19:00;10.40;;;2.60;;
39694;SDS011;25367;-35.352;149.036;2023-03-05T22:21:30;7.25;;;2.35;;
39694;SDS011;25367;-35.352;149.036;2023-03-05T22:23:59;4.90;;;1.98;;
39694;SDS011;25367;-35.352;149.036;2023-03-05T22:26:34;2.65;;;1.67;;
39694;SDS011;25367;-35.352;149.036;2023-03-05T22:29:05;7.80;;;2.17;;
39694;SDS011;25367;-35.352;149.036;2023-03-05T22:31:35;3.92;;;1.90;;
39694;SDS011;25367;-35.352;149.036;2023-03-05T22:34:05;4.18;;;1.83;;
39694;SDS011;25367;-35.352;149.036;2023-03-05T22:36:34;3.22;;;1.75;;
39694;SDS011;25367;-35.352;149.036;2023-03-05T22:39:04;4.10;;;1.77;;
39694;SDS011;25367;-35.352;149.036;2023-03-05T22:41:35;4.68;;;1.90;;
39694;SDS011;25367;-35.352;149.036;2023-03-05T22:44:06;5.07;;;1.70;;
39694;SDS011;25367;-35.352;149.036;2023-03-05T22:46:36;3.50;;;1.67;;
39694;SDS011;25367;-35.352;149.036;2023-03-05T22:49:05;2.97;;;1.75;;
39694;SDS011;25367;-35.352;149.036;2023-03-05T22:51:34;4.50;;;1.88;;
39694;SDS011;25367;-35.352;149.036;2023-03-05T22:54:04;3.42;;;1.73;;
39694;SDS011;25367;-35.352;149.036;2023-03-05T22:56:36;3.15;;;1.55;;
39694;SDS011;25367;-35.352;149.036;2023-03-05T22:59:05;2.47;;;1.75;;
39694;SDS011;25367;-35.352;149.036;2023-03-05T23:01:34;2.53;;;1.27;;
39694;SDS011;25367;-35.352;149.036;2023-03-05T23:04:04;2.58;;;1.35;;
39694;SDS011;25367;-35.352;149.036;2023-03-05T23:06:33;3.83;;;1.75;;
39694;SDS011;25367;-35.352;149.036;2023-03-05T23:09:03;4.35;;;1.70;;
39694;SDS011;25367;-35.352;149.036;2023-03-05T23:11:32;3.17;;;1.65;;
39694;SDS011;25367;-35.352;149.036;2023-03-05T23:14:04;2.90;;;1.70;;
39694;SDS011;25367;-35.352;149.036;2023-03-05T23:16:33;4.05;;;1.50;;
39694;SDS011;25367;-35.352;149.036;2023-03-05T23:19:03;3.28;;;1.40;;
39694;SDS011;25367;-35.352;149.036;2023-03-05T23:21:32;3.30;;;1.50;;
39694;SDS011;25367;-35.352;149.036;2023-03-05T23:24:02;2.92;;;1.52;;
39694;SDS011;25367;-35.352;149.036;2023-03-05T23:26:31;5.43;;;1.95;;
39694;SDS011;25367;-35.352;149.036;2023-03-05T23:29:03;3.92;;;1.23;;
39694;SDS011;25367;-35.352;149.036;2023-03-05T23:31:32;3.22;;;1.40;;
39694;SDS011;25367;-35.352;149.036;2023-03-05T23:34:02;2.83;;;1.30;;
39694;SDS011;25367;-35.352;149.036;2023-03-05T23:36:31;2.83;;;1.63;;
39694;SDS011;25367;-35.352;149.036;2023-03-05T23:39:01;6.90;;;1.90;;
39694;SDS011;25367;-35.352;149.036;2023-03-05T23:41:30;1.77;;;1.30;;
39694;SDS011;25367;-35.352;149.036;2023-03-05T23:43:59;2.20;;;1.30;;
39694;SDS011;25367;-35.352;149.036;2023-03-05T23:46:31;3.47;;;1.63;;